Alpine Forest, California
Current Conditions -  °F | °C
As of 1:35 PM on Friday 24 Oct 2014 (Local Time) from KTSP Reporting Station
Clear Clear  
Wind Chill: 81°   Ceiling: Unl
Heat Index: 81°   Visibility: 9mi
Dew Point: 18°   Wind: 17mph
Humidity: 10%   Direction: 130°SE
Pressure: 30.09"   Gusts: 28mph
Location:  35.1338°N, 118.552°W
Report Text: KTSP 242035Z AUTO 13015G24KT 9SM CLR 27/M08 A3009 RMK AO2
Loading
Personal Weather Stations






























Interactive Weather Map
Tropical Storm Tracking
New forecast layout! Learn more

10-Day Weather Forecast

Advertisements
Track Severe Weather on mobile